sensor_id;sensor_type;location;lat;lon;timestamp;P1;durP1;ratioP1;P2;durP2;ratioP2
5674;SDS011;2860;54.284;10.158;2022-09-12T00:02:11;9.30;;;8.38;;
5674;SDS011;2860;54.284;10.158;2022-09-12T00:04:36;10.60;;;9.05;;
5674;SDS011;2860;54.284;10.158;2022-09-12T00:07:02;8.75;;;8.13;;
5674;SDS011;2860;54.284;10.158;2022-09-12T00:09:27;9.85;;;8.90;;
5674;SDS011;2860;54.284;10.158;2022-09-12T00:11:53;8.82;;;8.02;;
5674;SDS011;2860;54.284;10.158;2022-09-12T00:14:18;9.23;;;8.52;;
5674;SDS011;2860;54.284;10.158;2022-09-12T00:16:44;9.77;;;8.88;;
5674;SDS011;2860;54.284;10.158;2022-09-12T00:19:10;10.57;;;9.77;;
5674;SDS011;2860;54.284;10.158;2022-09-12T00:21:37;9.80;;;9.13;;
5674;SDS011;2860;54.284;10.158;2022-09-12T00:24:03;11.57;;;10.32;;
5674;SDS011;2860;54.284;10.158;2022-09-12T00:26:29;9.13;;;8.57;;
5674;SDS011;2860;54.284;10.158;2022-09-12T00:28:55;10.63;;;9.60;;
5674;SDS011;2860;54.284;10.158;2022-09-12T00:31:22;9.40;;;8.63;;
5674;SDS011;2860;54.284;10.158;2022-09-12T00:33:49;10.80;;;9.93;;
5674;SDS011;2860;54.284;10.158;2022-09-12T00:36:16;9.98;;;9.20;;
5674;SDS011;2860;54.284;10.158;2022-09-12T00:38:45;9.93;;;9.27;;
5674;SDS011;2860;54.284;10.158;2022-09-12T00:41:14;10.02;;;9.13;;
5674;SDS011;2860;54.284;10.158;2022-09-12T00:43:45;9.20;;;8.60;;
5674;SDS011;2860;54.284;10.158;2022-09-12T00:46:15;10.65;;;9.95;;
5674;SDS011;2860;54.284;10.158;2022-09-12T00:48:49;10.05;;;9.15;;
5674;SDS011;2860;54.284;10.158;2022-09-12T00:51:18;10.35;;;9.65;;
5674;SDS011;2860;54.284;10.158;2022-09-12T00:53:44;11.48;;;10.57;;
5674;SDS011;2860;54.284;10.158;2022-09-12T00:56:12;9.90;;;9.20;;
5674;SDS011;2860;54.284;10.158;2022-09-12T00:58:49;10.38;;;9.60;;
5674;SDS011;2860;54.284;10.158;2022-09-12T01:01:18;9.52;;;8.63;;
5674;SDS011;2860;54.284;10.158;2022-09-12T01:03:44;9.68;;;8.88;;
5674;SDS011;2860;54.284;10.158;2022-09-12T01:06:26;10.05;;;9.30;;
5674;SDS011;2860;54.284;10.158;2022-09-12T01:08:54;10.07;;;9.07;;
5674;SDS011;2860;54.284;10.158;2022-09-12T01:11:20;9.55;;;8.93;;
5674;SDS011;2860;54.284;10.158;2022-09-12T01:13:47;9.50;;;8.90;;
5674;SDS011;2860;54.284;10.158;2022-09-12T01:16:13;10.00;;;9.07;;
5674;SDS011;2860;54.284;10.158;2022-09-12T01:18:50;9.63;;;9.02;;
5674;SDS011;2860;54.284;10.158;2022-09-12T01:21:33;9.63;;;8.95;;
5674;SDS011;2860;54.284;10.158;2022-09-12T01:24:47;9.68;;;9.02;;
5674;SDS011;2860;54.284;10.158;2022-09-12T01:46:44;12.02;;;9.90;;
5674;SDS011;2860;54.284;10.158;2022-09-12T01:49:18;9.55;;;9.02;;
5674;SDS011;2860;54.284;10.158;2022-09-12T01:51:54;10.60;;;9.63;;
5674;SDS011;2860;54.284;10.158;2022-09-12T01:54:26;11.13;;;10.23;;
5674;SDS011;2860;54.284;10.158;2022-09-12T01:57:00;10.75;;;9.95;;
5674;SDS011;2860;54.284;10.158;2022-09-12T01:59:33;10.88;;;10.18;;
5674;SDS011;2860;54.284;10.158;2022-09-12T02:04:36;10.95;;;10.15;;
5674;SDS011;2860;54.284;10.158;2022-09-12T02:07:10;10.82;;;10.13;;
5674;SDS011;2860;54.284;10.158;2022-09-12T02:09:45;10.45;;;9.55;;
5674;SDS011;2860;54.284;10.158;2022-09-12T02:12:19;10.95;;;10.07;;
5674;SDS011;2860;54.284;10.158;2022-09-12T02:14:54;11.35;;;10.55;;
5674;SDS011;2860;54.284;10.158;2022-09-12T02:17:24;11.30;;;10.18;;
5674;SDS011;2860;54.284;10.158;2022-09-12T02:20:01;10.18;;;9.43;;
5674;SDS011;2860;54.284;10.158;2022-09-12T02:22:47;10.30;;;9.65;;
5674;SDS011;2860;54.284;10.158;2022-09-12T02:25:15;10.43;;;9.68;;
5674;SDS011;2860;54.284;10.158;2022-09-12T02:27:44;11.73;;;10.82;;
5674;SDS011;2860;54.284;10.158;2022-09-12T02:30:14;11.50;;;10.40;;
5674;SDS011;2860;54.284;10.158;2022-09-12T02:38:15;11.75;;;10.93;;
5674;SDS011;2860;54.284;10.158;2022-09-12T02:41:08;10.88;;;10.07;;
5674;SDS011;2860;54.284;10.158;2022-09-12T02:43:34;11.52;;;10.40;;
5674;SDS011;2860;54.284;10.158;2022-09-12T02:46:01;10.07;;;9.38;;
5674;SDS011;2860;54.284;10.158;2022-09-12T02:48:30;16.08;;;10.77;;
5674;SDS011;2860;54.284;10.158;2022-09-12T02:50:59;10.68;;;9.77;;
5674;SDS011;2860;54.284;10.158;2022-09-12T02:53:25;11.23;;;10.32;;
5674;SDS011;2860;54.284;10.158;2022-09-12T02:55:50;10.98;;;9.98;;
5674;SDS011;2860;54.284;10.158;2022-09-12T02:58:17;11.10;;;10.40;;
5674;SDS011;2860;54.284;10.158;2022-09-12T03:00:50;10.88;;;9.93;;
5674;SDS011;2860;54.284;10.158;2022-09-12T03:06:17;9.65;;;8.82;;
5674;SDS011;2860;54.284;10.158;2022-09-12T03:09:14;9.63;;;8.93;;
5674;SDS011;2860;54.284;10.158;2022-09-12T03:14:50;9.35;;;8.52;;
5674;SDS011;2860;54.284;10.158;2022-09-12T03:17:50;8.40;;;7.80;;
5674;SDS011;2860;54.284;10.158;2022-09-12T03:20:28;8.45;;;7.95;;
5674;SDS011;2860;54.284;10.158;2022-09-12T03:23:21;8.25;;;7.85;;
5674;SDS011;2860;54.284;10.158;2022-09-12T03:26:11;8.68;;;8.05;;
5674;SDS011;2860;54.284;10.158;2022-09-12T03:28:41;8.88;;;8.38;;
5674;SDS011;2860;54.284;10.158;2022-09-12T03:31:12;8.05;;;7.65;;
5674;SDS011;2860;54.284;10.158;2022-09-12T03:33:40;8.07;;;7.68;;
5674;SDS011;2860;54.284;10.158;2022-09-12T03:36:05;9.13;;;8.38;;
5674;SDS011;2860;54.284;10.158;2022-09-12T03:38:37;8.18;;;7.68;;
5674;SDS011;2860;54.284;10.158;2022-09-12T03:41:03;9.30;;;8.55;;
5674;SDS011;2860;54.284;10.158;2022-09-12T03:43:29;8.38;;;7.68;;
5674;SDS011;2860;54.284;10.158;2022-09-12T03:45:54;8.77;;;8.18;;
5674;SDS011;2860;54.284;10.158;2022-09-12T03:48:20;8.95;;;8.20;;
5674;SDS011;2860;54.284;10.158;2022-09-12T03:50:45;8.85;;;8.05;;
5674;SDS011;2860;54.284;10.158;2022-09-12T03:53:11;8.50;;;8.00;;
5674;SDS011;2860;54.284;10.158;2022-09-12T03:55:37;8.27;;;7.60;;
5674;SDS011;2860;54.284;10.158;2022-09-12T03:58:03;7.50;;;7.20;;
5674;SDS011;2860;54.284;10.158;2022-09-12T04:00:28;7.43;;;7.05;;
5674;SDS011;2860;54.284;10.158;2022-09-12T04:02:55;7.25;;;6.85;;
5674;SDS011;2860;54.284;10.158;2022-09-12T04:05:21;8.07;;;7.47;;
5674;SDS011;2860;54.284;10.158;2022-09-12T04:07:48;7.97;;;7.22;;
5674;SDS011;2860;54.284;10.158;2022-09-12T04:10:13;7.78;;;7.20;;
5674;SDS011;2860;54.284;10.158;2022-09-12T04:12:39;7.30;;;6.68;;
5674;SDS011;2860;54.284;10.158;2022-09-12T04:15:05;7.47;;;6.70;;
5674;SDS011;2860;54.284;10.158;2022-09-12T04:17:32;9.32;;;8.70;;
5674;SDS011;2860;54.284;10.158;2022-09-12T04:19:58;12.48;;;8.27;;
5674;SDS011;2860;54.284;10.158;2022-09-12T04:22:24;11.85;;;8.80;;
5674;SDS011;2860;54.284;10.158;2022-09-12T04:24:49;13.65;;;9.38;;
5674;SDS011;2860;54.284;10.158;2022-09-12T04:27:15;17.95;;;10.00;;
5674;SDS011;2860;54.284;10.158;2022-09-12T04:29:40;11.95;;;10.48;;
5674;SDS011;2860;54.284;10.158;2022-09-12T04:32:06;9.88;;;9.15;;
5674;SDS011;2860;54.284;10.158;2022-09-12T04:34:31;9.95;;;9.05;;
5674;SDS011;2860;54.284;10.158;2022-09-12T04:36:57;12.93;;;9.88;;
5674;SDS011;2860;54.284;10.158;2022-09-12T04:39:23;12.27;;;11.07;;
5674;SDS011;2860;54.284;10.158;2022-09-12T04:41:48;9.68;;;8.85;;
5674;SDS011;2860;54.284;10.158;2022-09-12T04:44:14;9.48;;;8.77;;
5674;SDS011;2860;54.284;10.158;2022-09-12T04:46:43;11.93;;;8.35;;
5674;SDS011;2860;54.284;10.158;2022-09-12T04:49:10;8.20;;;7.70;;
5674;SDS011;2860;54.284;10.158;2022-09-12T04:51:37;8.38;;;7.80;;
5674;SDS011;2860;54.284;10.158;2022-09-12T04:54:07;7.97;;;7.40;;
5674;SDS011;2860;54.284;10.158;2022-09-12T04:56:39;7.25;;;6.88;;
5674;SDS011;2860;54.284;10.158;2022-09-12T04:59:06;7.95;;;7.35;;
5674;SDS011;2860;54.284;10.158;2022-09-12T05:01:33;7.63;;;7.22;;
5674;SDS011;2860;54.284;10.158;2022-09-12T05:03:59;8.15;;;7.55;;
5674;SDS011;2860;54.284;10.158;2022-09-12T05:06:27;6.63;;;6.32;;
5674;SDS011;2860;54.284;10.158;2022-09-12T05:08:55;6.90;;;6.50;;
5674;SDS011;2860;54.284;10.158;2022-09-12T05:11:23;10.82;;;6.45;;
5674;SDS011;2860;54.284;10.158;2022-09-12T05:13:51;6.97;;;6.68;;
5674;SDS011;2860;54.284;10.158;2022-09-12T05:16:17;13.90;;;8.20;;
5674;SDS011;2860;54.284;10.158;2022-09-12T05:18:43;7.35;;;6.88;;
5674;SDS011;2860;54.284;10.158;2022-09-12T05:21:11;7.85;;;7.32;;
5674;SDS011;2860;54.284;10.158;2022-09-12T05:23:38;7.53;;;6.75;;
5674;SDS011;2860;54.284;10.158;2022-09-12T05:26:05;9.35;;;8.27;;
5674;SDS011;2860;54.284;10.158;2022-09-12T05:28:35;11.95;;;10.77;;
5674;SDS011;2860;54.284;10.158;2022-09-12T05:31:06;9.18;;;7.90;;
5674;SDS011;2860;54.284;10.158;2022-09-12T05:33:35;7.43;;;7.00;;
5674;SDS011;2860;54.284;10.158;2022-09-12T05:36:03;6.63;;;6.32;;
5674;SDS011;2860;54.284;10.158;2022-09-12T05:38:30;5.63;;;5.22;;
5674;SDS011;2860;54.284;10.158;2022-09-12T05:41:09;5.53;;;5.22;;
5674;SDS011;2860;54.284;10.158;2022-09-12T05:43:36;5.67;;;5.20;;
5674;SDS011;2860;54.284;10.158;2022-09-12T05:46:22;5.13;;;4.68;;
5674;SDS011;2860;54.284;10.158;2022-09-12T05:48:49;5.68;;;5.18;;
5674;SDS011;2860;54.284;10.158;2022-09-12T05:51:19;5.72;;;5.43;;
5674;SDS011;2860;54.284;10.158;2022-09-12T05:53:47;6.22;;;5.90;;
5674;SDS011;2860;54.284;10.158;2022-09-12T05:56:19;6.63;;;5.85;;
5674;SDS011;2860;54.284;10.158;2022-09-12T05:58:52;6.00;;;5.50;;
5674;SDS011;2860;54.284;10.158;2022-09-12T06:01:18;6.47;;;6.00;;
5674;SDS011;2860;54.284;10.158;2022-09-12T06:03:47;5.18;;;5.07;;
5674;SDS011;2860;54.284;10.158;2022-09-12T06:06:16;6.85;;;6.45;;
5674;SDS011;2860;54.284;10.158;2022-09-12T06:08:44;6.28;;;6.00;;
5674;SDS011;2860;54.284;10.158;2022-09-12T06:11:12;6.15;;;5.88;;
5674;SDS011;2860;54.284;10.158;2022-09-12T06:13:39;7.85;;;7.18;;
5674;SDS011;2860;54.284;10.158;2022-09-12T06:16:07;7.80;;;7.20;;
5674;SDS011;2860;54.284;10.158;2022-09-12T06:18:46;10.32;;;7.75;;
5674;SDS011;2860;54.284;10.158;2022-09-12T06:21:16;8.55;;;7.95;;
5674;SDS011;2860;54.284;10.158;2022-09-12T06:23:42;9.40;;;8.40;;
5674;SDS011;2860;54.284;10.158;2022-09-12T06:26:10;9.30;;;8.68;;
5674;SDS011;2860;54.284;10.158;2022-09-12T06:28:36;13.27;;;11.88;;
5674;SDS011;2860;54.284;10.158;2022-09-12T06:31:04;9.98;;;9.25;;
5674;SDS011;2860;54.284;10.158;2022-09-12T06:33:35;13.02;;;10.20;;
5674;SDS011;2860;54.284;10.158;2022-09-12T06:38:30;9.77;;;8.93;;
5674;SDS011;2860;54.284;10.158;2022-09-12T06:40:56;11.15;;;10.05;;
5674;SDS011;2860;54.284;10.158;2022-09-12T06:43:23;10.38;;;9.38;;
5674;SDS011;2860;54.284;10.158;2022-09-12T06:45:49;15.32;;;10.70;;
5674;SDS011;2860;54.284;10.158;2022-09-12T06:48:15;8.93;;;8.23;;
5674;SDS011;2860;54.284;10.158;2022-09-12T06:50:40;10.20;;;9.23;;
5674;SDS011;2860;54.284;10.158;2022-09-12T06:53:06;9.15;;;8.48;;
5674;SDS011;2860;54.284;10.158;2022-09-12T06:55:31;8.45;;;7.85;;
5674;SDS011;2860;54.284;10.158;2022-09-12T06:57:57;9.88;;;9.18;;
5674;SDS011;2860;54.284;10.158;2022-09-12T07:00:23;8.55;;;7.88;;
5674;SDS011;2860;54.284;10.158;2022-09-12T07:02:52;8.07;;;7.57;;
5674;SDS011;2860;54.284;10.158;2022-09-12T07:05:20;8.13;;;7.38;;
5674;SDS011;2860;54.284;10.158;2022-09-12T07:07:46;7.22;;;6.55;;
5674;SDS011;2860;54.284;10.158;2022-09-12T07:10:11;6.55;;;6.15;;
5674;SDS011;2860;54.284;10.158;2022-09-12T07:12:37;8.70;;;5.90;;
5674;SDS011;2860;54.284;10.158;2022-09-12T07:15:02;4.80;;;4.70;;
5674;SDS011;2860;54.284;10.158;2022-09-12T07:17:28;4.93;;;3.97;;
5674;SDS011;2860;54.284;10.158;2022-09-12T07:19:54;4.90;;;4.43;;
5674;SDS011;2860;54.284;10.158;2022-09-12T07:22:20;4.38;;;4.28;;
5674;SDS011;2860;54.284;10.158;2022-09-12T07:24:45;8.70;;;4.43;;
5674;SDS011;2860;54.284;10.158;2022-09-12T07:27:11;4.88;;;4.47;;
5674;SDS011;2860;54.284;10.158;2022-09-12T07:29:37;4.10;;;3.90;;
5674;SDS011;2860;54.284;10.158;2022-09-12T07:32:03;3.33;;;3.22;;
5674;SDS011;2860;54.284;10.158;2022-09-12T07:34:29;3.55;;;3.45;;
5674;SDS011;2860;54.284;10.158;2022-09-12T07:36:55;3.03;;;2.90;;
5674;SDS011;2860;54.284;10.158;2022-09-12T07:39:21;3.45;;;3.28;;
5674;SDS011;2860;54.284;10.158;2022-09-12T07:41:46;3.05;;;2.90;;
5674;SDS011;2860;54.284;10.158;2022-09-12T07:44:12;3.80;;;3.60;;
5674;SDS011;2860;54.284;10.158;2022-09-12T07:46:37;5.03;;;4.72;;
5674;SDS011;2860;54.284;10.158;2022-09-12T07:49:04;2.97;;;2.97;;
5674;SDS011;2860;54.284;10.158;2022-09-12T07:51:29;3.13;;;3.00;;
5674;SDS011;2860;54.284;10.158;2022-09-12T07:53:56;3.63;;;3.53;;
5674;SDS011;2860;54.284;10.158;2022-09-12T07:56:22;3.03;;;2.83;;
5674;SDS011;2860;54.284;10.158;2022-09-12T07:58:48;4.50;;;4.13;;
5674;SDS011;2860;54.284;10.158;2022-09-12T08:01:15;2.65;;;2.65;;
5674;SDS011;2860;54.284;10.158;2022-09-12T08:03:43;2.33;;;2.17;;
5674;SDS011;2860;54.284;10.158;2022-09-12T08:06:11;2.47;;;2.38;;
5674;SDS011;2860;54.284;10.158;2022-09-12T08:08:38;2.33;;;2.22;;
5674;SDS011;2860;54.284;10.158;2022-09-12T08:11:05;3.25;;;2.08;;
5674;SDS011;2860;54.284;10.158;2022-09-12T08:13:33;2.38;;;2.35;;
5674;SDS011;2860;54.284;10.158;2022-09-12T08:16:01;2.63;;;2.17;;
5674;SDS011;2860;54.284;10.158;2022-09-12T08:18:29;1.77;;;1.77;;
5674;SDS011;2860;54.284;10.158;2022-09-12T08:20:59;4.97;;;1.90;;
5674;SDS011;2860;54.284;10.158;2022-09-12T08:23:27;2.05;;;2.05;;
5674;SDS011;2860;54.284;10.158;2022-09-12T08:25:56;3.67;;;1.75;;
5674;SDS011;2860;54.284;10.158;2022-09-12T08:28:23;2.60;;;1.83;;
5674;SDS011;2860;54.284;10.158;2022-09-12T08:30:49;2.42;;;1.95;;
5674;SDS011;2860;54.284;10.158;2022-09-12T08:33:16;2.05;;;1.90;;
5674;SDS011;2860;54.284;10.158;2022-09-12T08:35:41;2.25;;;1.88;;
5674;SDS011;2860;54.284;10.158;2022-09-12T08:38:07;2.42;;;2.10;;
5674;SDS011;2860;54.284;10.158;2022-09-12T08:40:32;2.97;;;2.28;;
5674;SDS011;2860;54.284;10.158;2022-09-12T08:46:06;2.03;;;1.90;;
5674;SDS011;2860;54.284;10.158;2022-09-12T08:48:36;1.55;;;1.55;;
5674;SDS011;2860;54.284;10.158;2022-09-12T08:51:03;1.48;;;1.42;;
5674;SDS011;2860;54.284;10.158;2022-09-12T08:53:29;4.78;;;1.90;;
5674;SDS011;2860;54.284;10.158;2022-09-12T08:55:57;1.50;;;1.50;;
5674;SDS011;2860;54.284;10.158;2022-09-12T08:58:24;1.83;;;1.73;;
5674;SDS011;2860;54.284;10.158;2022-09-12T09:01:06;1.63;;;1.63;;
5674;SDS011;2860;54.284;10.158;2022-09-12T09:14:50;2.40;;;1.80;;
5674;SDS011;2860;54.284;10.158;2022-09-12T09:17:24;2.58;;;1.90;;
5674;SDS011;2860;54.284;10.158;2022-09-12T09:22:42;2.58;;;1.80;;
5674;SDS011;2860;54.284;10.158;2022-09-12T09:25:22;1.63;;;1.52;;
5674;SDS011;2860;54.284;10.158;2022-09-12T09:28:00;2.15;;;2.05;;
5674;SDS011;2860;54.284;10.158;2022-09-12T09:30:34;2.08;;;1.63;;
5674;SDS011;2860;54.284;10.158;2022-09-12T09:33:00;1.33;;;1.30;;
5674;SDS011;2860;54.284;10.158;2022-09-12T09:35:44;1.40;;;1.40;;
5674;SDS011;2860;54.284;10.158;2022-09-12T09:38:22;1.90;;;1.88;;
5674;SDS011;2860;54.284;10.158;2022-09-12T09:41:00;1.75;;;1.75;;
5674;SDS011;2860;54.284;10.158;2022-09-12T09:43:50;2.30;;;1.60;;
5674;SDS011;2860;54.284;10.158;2022-09-12T09:46:15;1.40;;;1.40;;
5674;SDS011;2860;54.284;10.158;2022-09-12T09:48:42;6.22;;;1.48;;
5674;SDS011;2860;54.284;10.158;2022-09-12T09:51:10;1.77;;;1.70;;
5674;SDS011;2860;54.284;10.158;2022-09-12T09:53:47;1.70;;;1.60;;
5674;SDS011;2860;54.284;10.158;2022-09-12T09:56:35;1.58;;;1.48;;
5674;SDS011;2860;54.284;10.158;2022-09-12T09:59:10;2.00;;;2.00;;
5674;SDS011;2860;54.284;10.158;2022-09-12T10:01:46;2.22;;;1.33;;
5674;SDS011;2860;54.284;10.158;2022-09-12T10:04:19;1.90;;;1.27;;
5674;SDS011;2860;54.284;10.158;2022-09-12T10:06:49;1.75;;;1.75;;
5674;SDS011;2860;54.284;10.158;2022-09-12T10:09:18;1.50;;;1.50;;
5674;SDS011;2860;54.284;10.158;2022-09-12T10:11:46;1.58;;;1.58;;
5674;SDS011;2860;54.284;10.158;2022-09-12T10:16:58;1.60;;;1.60;;
5674;SDS011;2860;54.284;10.158;2022-09-12T10:19:35;1.70;;;1.60;;
5674;SDS011;2860;54.284;10.158;2022-09-12T10:22:03;1.60;;;1.50;;
5674;SDS011;2860;54.284;10.158;2022-09-12T10:24:34;1.63;;;1.63;;
5674;SDS011;2860;54.284;10.158;2022-09-12T10:27:05;1.80;;;1.80;;
5674;SDS011;2860;54.284;10.158;2022-09-12T10:29:53;1.40;;;1.40;;
5674;SDS011;2860;54.284;10.158;2022-09-12T10:32:28;2.17;;;2.08;;
5674;SDS011;2860;54.284;10.158;2022-09-12T10:35:01;1.27;;;1.27;;
5674;SDS011;2860;54.284;10.158;2022-09-12T10:37:36;1.75;;;1.65;;
5674;SDS011;2860;54.284;10.158;2022-09-12T10:40:05;2.85;;;1.60;;
5674;SDS011;2860;54.284;10.158;2022-09-12T10:42:46;1.85;;;1.63;;
5674;SDS011;2860;54.284;10.158;2022-09-12T10:47:59;1.48;;;1.45;;
5674;SDS011;2860;54.284;10.158;2022-09-12T10:53:40;1.48;;;1.48;;
5674;SDS011;2860;54.284;10.158;2022-09-12T10:56:05;1.65;;;1.40;;
5674;SDS011;2860;54.284;10.158;2022-09-12T11:14:44;1.70;;;1.70;;
5674;SDS011;2860;54.284;10.158;2022-09-12T11:18:07;3.50;;;1.75;;
5674;SDS011;2860;54.284;10.158;2022-09-12T11:23:22;1.20;;;1.20;;
5674;SDS011;2860;54.284;10.158;2022-09-12T11:26:01;1.67;;;1.67;;
5674;SDS011;2860;54.284;10.158;2022-09-12T11:31:28;1.40;;;1.30;;
5674;SDS011;2860;54.284;10.158;2022-09-12T11:34:11;3.13;;;1.98;;
5674;SDS011;2860;54.284;10.158;2022-09-12T11:36:45;2.05;;;0.80;;
5674;SDS011;2860;54.284;10.158;2022-09-12T11:39:37;1.00;;;1.00;;
5674;SDS011;2860;54.284;10.158;2022-09-12T11:42:04;1.10;;;1.10;;
5674;SDS011;2860;54.284;10.158;2022-09-12T11:44:40;1.65;;;1.08;;
5674;SDS011;2860;54.284;10.158;2022-09-12T11:47:11;1.73;;;0.95;;
5674;SDS011;2860;54.284;10.158;2022-09-12T11:49:48;3.70;;;1.30;;
5674;SDS011;2860;54.284;10.158;2022-09-12T11:52:16;3.85;;;1.10;;
5674;SDS011;2860;54.284;10.158;2022-09-12T12:00:01;0.93;;;0.93;;
5674;SDS011;2860;54.284;10.158;2022-09-12T12:02:41;1.67;;;1.10;;
5674;SDS011;2860;54.284;10.158;2022-09-12T12:05:21;1.30;;;1.10;;
5674;SDS011;2860;54.284;10.158;2022-09-12T12:07:57;1.40;;;1.40;;
5674;SDS011;2860;54.284;10.158;2022-09-12T12:10:36;1.05;;;0.93;;
5674;SDS011;2860;54.284;10.158;2022-09-12T12:13:14;0.82;;;0.80;;
5674;SDS011;2860;54.284;10.158;2022-09-12T12:15:49;1.00;;;1.00;;
5674;SDS011;2860;54.284;10.158;2022-09-12T12:18:22;1.10;;;1.10;;
5674;SDS011;2860;54.284;10.158;2022-09-12T12:20:49;0.93;;;0.93;;
5674;SDS011;2860;54.284;10.158;2022-09-12T12:23:22;1.13;;;0.90;;
5674;SDS011;2860;54.284;10.158;2022-09-12T12:25:55;1.13;;;1.13;;
5674;SDS011;2860;54.284;10.158;2022-09-12T12:31:21;1.48;;;1.42;;
5674;SDS011;2860;54.284;10.158;2022-09-12T12:44:58;1.10;;;1.10;;
5674;SDS011;2860;54.284;10.158;2022-09-12T12:50:00;1.60;;;1.60;;
5674;SDS011;2860;54.284;10.158;2022-09-12T12:55:13;1.85;;;1.10;;
5674;SDS011;2860;54.284;10.158;2022-09-12T12:57:50;1.17;;;1.17;;
5674;SDS011;2860;54.284;10.158;2022-09-12T13:02:58;1.83;;;1.83;;
5674;SDS011;2860;54.284;10.158;2022-09-12T13:06:04;2.58;;;1.73;;
5674;SDS011;2860;54.284;10.158;2022-09-12T13:08:27;1.58;;;1.58;;
5674;SDS011;2860;54.284;10.158;2022-09-12T13:10:57;1.17;;;1.15;;
5674;SDS011;2860;54.284;10.158;2022-09-12T13:13:34;4.60;;;1.45;;
5674;SDS011;2860;54.284;10.158;2022-09-12T13:16:11;1.65;;;1.10;;
5674;SDS011;2860;54.284;10.158;2022-09-12T13:18:53;1.80;;;1.70;;
5674;SDS011;2860;54.284;10.158;2022-09-12T13:21:20;1.42;;;1.10;;
5674;SDS011;2860;54.284;10.158;2022-09-12T13:24:00;1.60;;;0.98;;
5674;SDS011;2860;54.284;10.158;2022-09-12T13:26:34;1.13;;;1.08;;
5674;SDS011;2860;54.284;10.158;2022-09-12T13:31:37;1.00;;;1.00;;
5674;SDS011;2860;54.284;10.158;2022-09-12T13:34:06;1.00;;;1.00;;
5674;SDS011;2860;54.284;10.158;2022-09-12T13:44:43;1.13;;;1.13;;
5674;SDS011;2860;54.284;10.158;2022-09-12T13:47:17;1.30;;;1.30;;
5674;SDS011;2860;54.284;10.158;2022-09-12T13:49:57;0.90;;;0.90;;
5674;SDS011;2860;54.284;10.158;2022-09-12T13:52:24;2.03;;;1.15;;
5674;SDS011;2860;54.284;10.158;2022-09-12T13:54:55;1.52;;;1.42;;
5674;SDS011;2860;54.284;10.158;2022-09-12T14:00:12;1.40;;;1.27;;
5674;SDS011;2860;54.284;10.158;2022-09-12T14:02:43;1.08;;;1.08;;
5674;SDS011;2860;54.284;10.158;2022-09-12T14:05:16;0.88;;;0.88;;
5674;SDS011;2860;54.284;10.158;2022-09-12T14:10:26;4.07;;;1.27;;
5674;SDS011;2860;54.284;10.158;2022-09-12T14:12:57;2.47;;;1.65;;
5674;SDS011;2860;54.284;10.158;2022-09-12T14:15:26;1.10;;;0.98;;
5674;SDS011;2860;54.284;10.158;2022-09-12T14:17:55;1.02;;;0.90;;
5674;SDS011;2860;54.284;10.158;2022-09-12T14:20:25;1.10;;;1.10;;
5674;SDS011;2860;54.284;10.158;2022-09-12T14:23:00;5.13;;;1.02;;
5674;SDS011;2860;54.284;10.158;2022-09-12T14:25:41;1.00;;;1.00;;
5674;SDS011;2860;54.284;10.158;2022-09-12T14:28:11;1.90;;;1.20;;
5674;SDS011;2860;54.284;10.158;2022-09-12T14:30:55;1.48;;;1.48;;
5674;SDS011;2860;54.284;10.158;2022-09-12T14:33:22;1.10;;;1.10;;
5674;SDS011;2860;54.284;10.158;2022-09-12T14:35:50;1.48;;;1.48;;
5674;SDS011;2860;54.284;10.158;2022-09-12T14:38:33;1.30;;;1.10;;
5674;SDS011;2860;54.284;10.158;2022-09-12T14:41:02;4.13;;;1.02;;
5674;SDS011;2860;54.284;10.158;2022-09-12T14:43:32;1.38;;;1.30;;
5674;SDS011;2860;54.284;10.158;2022-09-12T14:48:41;1.85;;;1.35;;
5674;SDS011;2860;54.284;10.158;2022-09-12T14:51:20;1.30;;;1.30;;
5674;SDS011;2860;54.284;10.158;2022-09-12T14:53:50;1.65;;;1.40;;
5674;SDS011;2860;54.284;10.158;2022-09-12T14:56:16;1.35;;;1.35;;
5674;SDS011;2860;54.284;10.158;2022-09-12T14:58:44;2.05;;;1.50;;
5674;SDS011;2860;54.284;10.158;2022-09-12T15:06:28;1.20;;;1.10;;
5674;SDS011;2860;54.284;10.158;2022-09-12T15:08:56;1.80;;;1.20;;
5674;SDS011;2860;54.284;10.158;2022-09-12T15:11:23;1.95;;;1.23;;
5674;SDS011;2860;54.284;10.158;2022-09-12T15:13:49;2.60;;;1.17;;
5674;SDS011;2860;54.284;10.158;2022-09-12T15:16:15;2.65;;;1.15;;
5674;SDS011;2860;54.284;10.158;2022-09-12T15:18:40;1.10;;;1.10;;
5674;SDS011;2860;54.284;10.158;2022-09-12T15:21:07;1.70;;;1.40;;
5674;SDS011;2860;54.284;10.158;2022-09-12T15:23:44;1.50;;;1.40;;
5674;SDS011;2860;54.284;10.158;2022-09-12T15:26:13;5.65;;;1.50;;
5674;SDS011;2860;54.284;10.158;2022-09-12T15:28:51;1.55;;;1.15;;
5674;SDS011;2860;54.284;10.158;2022-09-12T15:31:27;4.93;;;1.20;;
5674;SDS011;2860;54.284;10.158;2022-09-12T15:33:54;3.05;;;1.75;;
5674;SDS011;2860;54.284;10.158;2022-09-12T15:36:22;1.25;;;1.23;;
5674;SDS011;2860;54.284;10.158;2022-09-12T15:38:48;2.90;;;1.40;;
5674;SDS011;2860;54.284;10.158;2022-09-12T15:41:15;1.92;;;1.42;;
5674;SDS011;2860;54.284;10.158;2022-09-12T15:43:43;1.33;;;1.20;;
5674;SDS011;2860;54.284;10.158;2022-09-12T15:46:10;1.33;;;1.33;;
5674;SDS011;2860;54.284;10.158;2022-09-12T15:48:37;1.98;;;1.83;;
5674;SDS011;2860;54.284;10.158;2022-09-12T15:51:03;2.95;;;1.33;;
5674;SDS011;2860;54.284;10.158;2022-09-12T15:53:29;2.15;;;1.63;;
5674;SDS011;2860;54.284;10.158;2022-09-12T15:55:55;2.85;;;2.00;;
5674;SDS011;2860;54.284;10.158;2022-09-12T15:58:21;1.73;;;1.73;;
5674;SDS011;2860;54.284;10.158;2022-09-12T16:00:47;2.75;;;2.60;;
5674;SDS011;2860;54.284;10.158;2022-09-12T16:03:16;2.00;;;2.00;;
5674;SDS011;2860;54.284;10.158;2022-09-12T16:05:46;2.15;;;1.95;;
5674;SDS011;2860;54.284;10.158;2022-09-12T16:08:12;1.88;;;1.83;;
5674;SDS011;2860;54.284;10.158;2022-09-12T16:10:38;2.40;;;2.30;;
5674;SDS011;2860;54.284;10.158;2022-09-12T16:13:06;2.25;;;2.13;;
5674;SDS011;2860;54.284;10.158;2022-09-12T16:15:31;2.40;;;2.30;;
5674;SDS011;2860;54.284;10.158;2022-09-12T16:17:57;4.95;;;2.83;;
5674;SDS011;2860;54.284;10.158;2022-09-12T16:20:22;1.90;;;1.90;;
5674;SDS011;2860;54.284;10.158;2022-09-12T16:22:48;2.20;;;2.20;;
5674;SDS011;2860;54.284;10.158;2022-09-12T16:25:14;1.98;;;1.98;;
5674;SDS011;2860;54.284;10.158;2022-09-12T16:27:39;2.58;;;2.47;;
5674;SDS011;2860;54.284;10.158;2022-09-12T16:30:05;2.78;;;2.78;;
5674;SDS011;2860;54.284;10.158;2022-09-12T16:32:32;2.70;;;2.35;;
5674;SDS011;2860;54.284;10.158;2022-09-12T16:34:58;2.85;;;2.65;;
5674;SDS011;2860;54.284;10.158;2022-09-12T16:37:23;3.00;;;2.67;;
5674;SDS011;2860;54.284;10.158;2022-09-12T16:39:49;2.65;;;2.55;;
5674;SDS011;2860;54.284;10.158;2022-09-12T16:42:16;2.97;;;2.50;;
5674;SDS011;2860;54.284;10.158;2022-09-12T16:44:43;3.40;;;2.95;;
5674;SDS011;2860;54.284;10.158;2022-09-12T16:47:11;2.50;;;2.30;;
5674;SDS011;2860;54.284;10.158;2022-09-12T16:49:37;2.33;;;2.15;;
5674;SDS011;2860;54.284;10.158;2022-09-12T16:52:03;2.00;;;1.88;;
5674;SDS011;2860;54.284;10.158;2022-09-12T16:54:29;2.28;;;2.10;;
5674;SDS011;2860;54.284;10.158;2022-09-12T16:56:55;2.55;;;2.45;;
5674;SDS011;2860;54.284;10.158;2022-09-12T16:59:20;2.50;;;2.17;;
5674;SDS011;2860;54.284;10.158;2022-09-12T17:01:46;2.30;;;2.30;;
5674;SDS011;2860;54.284;10.158;2022-09-12T17:04:11;5.63;;;2.08;;
5674;SDS011;2860;54.284;10.158;2022-09-12T17:06:37;3.22;;;3.03;;
5674;SDS011;2860;54.284;10.158;2022-09-12T17:09:03;2.55;;;2.45;;
5674;SDS011;2860;54.284;10.158;2022-09-12T17:11:30;3.00;;;2.47;;
5674;SDS011;2860;54.284;10.158;2022-09-12T17:13:57;2.92;;;2.67;;
5674;SDS011;2860;54.284;10.158;2022-09-12T17:16:24;7.13;;;6.72;;
5674;SDS011;2860;54.284;10.158;2022-09-12T17:18:51;5.35;;;5.10;;
5674;SDS011;2860;54.284;10.158;2022-09-12T17:21:17;4.05;;;3.70;;
5674;SDS011;2860;54.284;10.158;2022-09-12T17:23:44;3.58;;;3.50;;
5674;SDS011;2860;54.284;10.158;2022-09-12T17:26:10;3.30;;;3.20;;
5674;SDS011;2860;54.284;10.158;2022-09-12T17:28:36;2.70;;;2.60;;
5674;SDS011;2860;54.284;10.158;2022-09-12T17:31:03;3.75;;;3.65;;